Time;durP1;ratioP1;P1;durP2;ratioP2;P2;SDS_P1;SDS_P2;PMS_P1;PMS_P2;Temp;Humidity;BMP_temperature;BMP_pressure;BME280_temperature;BME280_humidity;BME280_pressure;Samples;Min_cycle;Max_cycle;Signal;HPM_P1;HPM_P2
2021/05/22 00:02:48;;;;;;;6.57;1.80;;;;;;;13.70;61.83;98154.64;2041892;87;21027;-66
2021/05/22 00:05:49;;;;;;;8.50;2.07;;;;;;;13.68;61.57;98157.90;2042026;87;21107;-64
2021/05/22 00:08:51;;;;;;;6.17;2.00;;;;;;;13.67;61.59;98145.67;2041997;87;21441;-64
2021/05/22 00:11:52;;;;;;;6.77;1.53;;;;;;;13.67;61.48;98150.95;2041916;87;21467;-63
2021/05/22 00:14:53;;;;;;;10.17;2.23;;;;;;;13.67;61.19;98145.67;2042041;87;21123;-64
2021/05/22 00:17:56;;;;;;;7.87;1.87;;;;;;;13.67;60.88;98154.91;2034327;87;21168;-66
2021/05/22 00:20:57;;;;;;;7.07;2.13;;;;;;;13.68;61.09;98160.04;2021007;88;21041;-64
2021/05/22 00:23:58;;;;;;;8.70;2.50;;;;;;;13.67;60.63;98160.17;2020833;88;21523;-63
2021/05/22 00:27:00;;;;;;;6.30;1.80;;;;;;;13.66;60.97;98162.45;2020990;88;21005;-64
2021/05/22 00:30:01;;;;;;;6.40;1.87;;;;;;;13.65;60.67;98166.06;2020868;88;21045;-64
2021/05/22 00:33:03;;;;;;;10.53;2.40;;;;;;;13.63;61.10;98157.44;2020854;88;21042;-64
2021/05/22 00:36:04;;;;;;;8.33;1.90;;;;;;;13.59;61.20;98163.92;2020952;87;21152;-64
2021/05/22 00:39:06;;;;;;;13.68;2.58;;;;;;;13.57;61.45;98144.30;2020867;88;21021;-64
2021/05/22 00:42:07;;;;;;;6.00;1.83;;;;;;;13.57;61.55;98139.02;2020822;88;21045;-63
2021/05/22 00:45:09;;;;;;;4.60;1.82;;;;;;;13.55;61.48;98135.70;2020927;88;20986;-63
2021/05/22 00:48:11;;;;;;;8.45;2.10;;;;;;;13.54;61.63;98127.44;2020908;88;21050;-63
2021/05/22 00:51:12;;;;;;;7.17;2.20;;;;;;;13.51;61.51;98127.20;2020739;88;21041;-63
2021/05/22 00:54:14;;;;;;;7.23;2.13;;;;;;;13.47;61.62;98117.88;2020988;88;21045;-64
2021/05/22 00:57:15;;;;;;;7.97;2.10;;;;;;;13.43;61.64;98123.08;2020841;88;21589;-63
2021/05/22 01:00:17;;;;;;;7.72;2.10;;;;;;;13.43;61.60;98111.69;2020966;88;21025;-64
2021/05/22 01:03:18;;;;;;;10.30;2.57;;;;;;;13.45;61.51;98105.34;2020785;88;21077;-63
2021/05/22 01:06:20;;;;;;;9.40;2.10;;;;;;;13.45;61.41;98097.92;2020707;88;21088;-64
2021/05/22 01:09:21;;;;;;;12.47;2.87;;;;;;;13.45;61.59;98099.25;2020993;88;21038;-64
2021/05/22 01:12:23;;;;;;;8.10;2.37;;;;;;;13.44;61.55;98107.61;2020846;87;21532;-63
2021/05/22 01:15:25;;;;;;;10.38;2.10;;;;;;;13.45;61.48;98122.95;2020835;88;21009;-63
2021/05/22 01:18:27;;;;;;;7.35;2.20;;;;;;;13.44;61.68;98117.33;2029647;87;21075;-64
2021/05/22 01:21:28;;;;;;;8.20;2.27;;;;;;;13.45;61.59;98111.09;2041917;87;21095;-64
2021/05/22 01:24:29;;;;;;;7.33;2.37;;;;;;;13.46;61.76;98104.84;2041958;87;21063;-63
2021/05/22 01:27:31;;;;;;;13.63;3.53;;;;;;;13.44;61.68;98113.38;2041875;87;21140;-64
2021/05/22 01:30:32;;;;;;;11.30;2.53;;;;;;;13.45;61.74;98116.37;2041982;87;21016;-63
2021/05/22 01:33:34;;;;;;;9.90;2.73;;;;;;;13.40;61.83;98086.44;2041756;87;21746;-64
2021/05/22 01:36:35;;;;;;;10.20;2.40;;;;;;;13.40;61.83;98093.02;2041963;87;21035;-64
2021/05/22 01:39:37;;;;;;;9.30;2.20;;;;;;;13.39;61.87;98100.59;2041853;87;21139;-64
2021/05/22 01:42:38;;;;;;;9.37;2.67;;;;;;;13.34;61.86;98089.11;2041925;87;21028;-63
2021/05/22 01:45:40;;;;;;;9.18;2.80;;;;;;;13.28;61.79;98085.64;2041983;87;21100;-63
2021/05/22 01:48:42;;;;;;;11.15;2.75;;;;;;;13.32;61.98;98087.56;2041712;87;21064;-63
2021/05/22 01:51:43;;;;;;;13.90;2.87;;;;;;;13.31;62.02;98095.09;2041936;87;21147;-63
2021/05/22 01:54:45;;;;;;;13.03;2.95;;;;;;;13.31;62.13;98106.45;2041980;87;21307;-62
2021/05/22 01:57:46;;;;;;;14.83;2.80;;;;;;;13.40;62.31;98106.19;2041983;87;21052;-63
2021/05/22 02:00:48;;;;;;;15.77;3.10;;;;;;;13.39;62.26;98104.55;2041804;87;21178;-63
2021/05/22 02:03:49;;;;;;;11.57;2.77;;;;;;;13.33;62.11;98103.23;2041783;87;21064;-63
2021/05/22 02:06:50;;;;;;;13.10;2.93;;;;;;;13.32;62.22;98116.03;2041922;87;21111;-65
2021/05/22 02:09:52;;;;;;;18.40;4.13;;;;;;;13.29;62.59;98112.84;2041807;87;21527;-63
2021/05/22 02:12:53;;;;;;;15.43;2.93;;;;;;;13.24;62.39;98105.79;2041943;87;21108;-63
2021/05/22 02:15:55;;;;;;;12.65;2.70;;;;;;;13.27;62.33;98105.53;2042316;87;21589;-63
2021/05/22 02:18:56;;;;;;;12.97;3.10;;;;;;;13.30;62.36;98103.95;2031214;87;21029;-64
2021/05/22 02:21:58;;;;;;;10.05;2.80;;;;;;;13.27;62.39;98097.63;2020741;88;21022;-63
2021/05/22 02:24:59;;;;;;;12.77;2.73;;;;;;;13.29;62.41;98102.30;2020783;88;21577;-63
2021/05/22 02:28:01;;;;;;;10.23;2.83;;;;;;;13.32;62.42;98099.41;2020869;88;21089;-63
2021/05/22 02:31:02;;;;;;;12.18;2.55;;;;;;;13.33;62.42;98092.69;2020745;88;21938;-64
2021/05/22 02:34:03;;;;;;;8.63;2.60;;;;;;;13.38;62.44;98094.97;2020797;88;21013;-63
2021/05/22 02:37:05;;;;;;;8.43;2.27;;;;;;;13.31;62.43;98093.78;2020923;88;21036;-63
2021/05/22 02:40:06;;;;;;;6.97;2.60;;;;;;;13.23;62.37;98085.22;2020880;88;20997;-63
2021/05/22 02:43:08;;;;;;;12.15;2.80;;;;;;;13.21;62.73;98079.72;2020871;88;21038;-63
2021/05/22 02:46:09;;;;;;;9.27;2.90;;;;;;;13.30;62.39;98078.94;2020785;88;21517;-63
2021/05/22 02:49:11;;;;;;;9.10;2.77;;;;;;;13.28;62.37;98080.87;2020926;88;21025;-63
2021/05/22 02:52:12;;;;;;;8.37;2.73;;;;;;;13.27;62.64;98079.20;2020741;88;21548;-63
2021/05/22 02:55:13;;;;;;;10.80;3.15;;;;;;;13.26;62.80;98077.05;2020812;88;21101;-63
2021/05/22 02:58:15;;;;;;;8.83;2.98;;;;;;;13.30;62.65;98069.72;2020881;88;21024;-64
2021/05/22 03:01:16;;;;;;;10.10;2.70;;;;;;;13.31;62.76;98064.81;2020718;88;21025;-64
2021/05/22 03:04:18;;;;;;;9.50;2.77;;;;;;;13.33;62.86;98058.45;2020841;88;21061;-65
2021/05/22 03:07:20;;;;;;;9.65;2.70;;;;;;;13.34;62.84;98063.23;2020649;88;21613;-66
2021/05/22 03:10:21;;;;;;;12.00;2.70;;;;;;;13.45;62.57;98062.37;2020792;87;21030;-63
2021/05/22 03:13:23;;;;;;;9.60;2.50;;;;;;;13.45;62.52;98059.23;2020852;88;21006;-63
2021/05/22 03:16:24;;;;;;;9.97;2.57;;;;;;;13.49;62.58;98062.46;2020873;88;21030;-65
2021/05/22 03:19:25;;;;;;;11.95;2.95;;;;;;;13.53;62.54;98057.75;2032520;87;21092;-63
2021/05/22 03:22:27;;;;;;;16.42;3.22;;;;;;;13.48;62.68;98052.88;2041523;87;21619;-62
2021/05/22 03:25:29;;;;;;;10.93;2.90;;;;;;;13.47;62.79;98047.25;2041894;87;21048;-63
2021/05/22 03:28:30;;;;;;;10.87;3.10;;;;;;;13.41;62.67;98048.61;2041776;87;21120;-63
2021/05/22 03:31:32;;;;;;;9.93;2.55;;;;;;;13.40;62.86;98047.42;2041637;87;21087;-63
2021/05/22 03:34:33;;;;;;;10.30;2.85;;;;;;;13.39;62.87;98054.50;2041767;87;21197;-63
2021/05/22 03:37:35;;;;;;;8.10;2.50;;;;;;;13.42;63.08;98063.45;2041779;87;21063;-64
2021/05/22 03:40:36;;;;;;;11.60;2.80;;;;;;;13.31;63.51;98059.55;2041875;87;21111;-63
2021/05/22 03:43:38;;;;;;;12.70;3.12;;;;;;;13.33;63.76;98057.14;2041735;87;21610;-62
2021/05/22 03:46:39;;;;;;;10.47;2.87;;;;;;;13.34;63.49;98062.77;2041882;87;21143;-63
2021/05/22 03:49:40;;;;;;;11.50;3.13;;;;;;;13.30;63.40;98061.35;2041760;87;21036;-64
2021/05/22 03:52:42;;;;;;;11.97;2.97;;;;;;;13.24;64.17;98064.48;2041779;87;21151;-63
2021/05/22 03:55:45;;;;;;;12.23;3.10;;;;;;;13.14;64.79;98057.83;2041516;87;21944;-63
2021/05/22 03:58:46;;;;;;;13.20;3.25;;;;;;;13.13;65.05;98050.92;2041858;87;21119;-64
2021/05/22 04:01:47;;;;;;;16.25;4.10;;;;;;;13.21;64.87;98052.89;2041732;87;21024;-62
2021/05/22 04:04:49;;;;;;;17.00;3.67;;;;;;;13.27;64.70;98048.42;2041726;87;21120;-63
2021/05/22 04:07:50;;;;;;;13.33;3.30;;;;;;;13.31;64.52;98058.23;2041877;87;21049;-63
2021/05/22 04:10:52;;;;;;;10.93;3.20;;;;;;;13.41;64.47;98057.83;2041719;87;21570;-68
2021/05/22 04:13:53;;;;;;;15.80;3.70;;;;;;;13.54;64.71;98054.16;2041902;87;21028;-64
2021/05/22 04:16:55;;;;;;;16.27;3.60;;;;;;;13.57;64.93;98055.20;2042253;87;21554;-63
2021/05/22 04:19:56;;;;;;;13.53;3.50;;;;;;;13.60;64.60;98056.26;2041549;87;21119;-63
2021/05/22 04:22:58;;;;;;;15.10;3.80;;;;;;;13.72;64.37;98045.99;2041824;87;21148;-63
2021/05/22 04:25:59;;;;;;;14.38;3.58;;;;;;;13.74;64.17;98054.59;2041787;87;21028;-63
2021/05/22 04:29:01;;;;;;;15.50;3.77;;;;;;;13.82;64.36;98050.81;2041882;87;21103;-63
2021/05/22 04:32:02;;;;;;;15.00;3.83;;;;;;;13.94;64.28;98054.67;2041759;87;21567;-63
2021/05/22 04:35:03;;;;;;;14.13;3.72;;;;;;;14.13;64.05;98065.75;2042023;87;21116;-62
2021/05/22 04:38:05;;;;;;;15.00;3.60;;;;;;;14.20;64.02;98063.75;2041901;87;21028;-67
2021/05/22 04:41:06;;;;;;;16.40;3.70;;;;;;;14.32;64.23;98067.59;2041869;87;21127;-65
2021/05/22 04:44:08;;;;;;;15.33;3.80;;;;;;;14.61;63.78;98065.02;2041989;87;21080;-63
2021/05/22 04:47:09;;;;;;;11.40;3.63;;;;;;;14.69;63.48;98061.70;2041851;87;21694;-63
2021/05/22 04:50:11;;;;;;;17.10;4.23;;;;;;;14.90;63.28;98062.40;2042021;87;21032;-64
2021/05/22 04:53:12;;;;;;;12.05;3.92;;;;;;;15.19;63.23;98065.50;2041744;87;21607;-62
2021/05/22 04:56:13;;;;;;;14.47;3.60;;;;;;;15.72;62.58;98058.00;2041884;87;21064;-63
2021/05/22 04:59:15;;;;;;;20.52;6.25;;;;;;;16.20;62.21;98048.19;2042018;87;21068;-63
2021/05/22 05:02:16;;;;;;;30.37;5.20;;;;;;;16.67;61.22;98046.69;2041843;87;21555;-63
2021/05/22 05:05:18;;;;;;;17.43;4.90;;;;;;;17.20;60.42;98045.00;2041989;87;21016;-63
2021/05/22 05:08:20;;;;;;;11.90;3.47;;;;;;;17.62;59.83;98041.61;2041875;87;21178;-63
2021/05/22 05:11:22;;;;;;;12.07;3.10;;;;;;;18.04;58.79;98041.33;2041603;87;21072;-63
2021/05/22 05:14:23;;;;;;;10.20;2.80;;;;;;;18.38;58.19;98044.42;2041973;87;21163;-63
2021/05/22 05:17:25;;;;;;;10.40;3.00;;;;;;;18.75;57.36;98048.47;2041795;87;21527;-63
2021/05/22 05:20:26;;;;;;;12.75;3.12;;;;;;;19.08;56.93;98044.53;2041709;87;21167;-63
2021/05/22 05:23:29;;;;;;;9.90;2.67;;;;;;;19.03;56.22;98042.86;2041574;87;21075;-64
2021/05/22 05:26:30;;;;;;;9.80;2.75;;;;;;;18.92;55.64;98049.34;2041919;87;21020;-63
2021/05/22 05:29:32;;;;;;;12.93;2.90;;;;;;;18.81;55.95;98049.64;2041770;87;21618;-63
2021/05/22 05:32:33;;;;;;;13.90;2.90;;;;;;;18.86;55.24;98049.95;2041947;87;21076;-64
2021/05/22 05:35:35;;;;;;;9.53;2.40;;;;;;;18.77;55.36;98063.73;2041904;87;21060;-63
2021/05/22 05:38:36;;;;;;;13.40;3.02;;;;;;;18.65;54.85;98079.16;2041729;87;21124;-63
2021/05/22 05:41:38;;;;;;;8.43;2.72;;;;;;;18.54;55.60;98076.81;2041645;87;21143;-64
2021/05/22 05:44:39;;;;;;;11.43;2.70;;;;;;;18.44;54.97;98062.86;2041787;87;21093;-64
2021/05/22 05:47:41;;;;;;;7.40;2.15;;;;;;;18.51;54.12;98051.41;2041761;87;21598;-63
2021/05/22 05:50:42;;;;;;;9.33;2.37;;;;;;;18.69;54.05;98034.50;2041828;87;21056;-65
2021/05/22 05:53:44;;;;;;;4.92;2.00;;;;;;;18.69;54.05;98034.50;2041834;87;21048;-64
2021/05/22 05:56:45;;;;;;;7.22;2.02;;;;;;;18.92;53.04;98053.81;2041723;87;21622;-64
2021/05/22 05:59:46;;;;;;;9.23;2.25;;;;;;;19.10;52.58;98052.33;2041841;87;21049;-65
2021/05/22 06:02:48;;;;;;;8.95;2.15;;;;;;;19.35;53.16;98055.30;2041775;87;21111;-64
2021/05/22 06:05:49;;;;;;;10.40;2.60;;;;;;;19.53;52.51;98053.76;2041688;87;21079;-64
2021/05/22 06:08:51;;;;;;;6.72;2.12;;;;;;;19.94;52.74;98049.34;2041800;87;21036;-64
2021/05/22 06:11:52;;;;;;;15.45;2.60;;;;;;;20.23;51.14;98047.41;2041692;87;21594;-70
2021/05/22 06:14:57;;;;;;;8.38;2.22;;;;;;;19.98;51.31;98043.50;2041823;87;21031;-64
2021/05/22 06:17:58;;;;;;;5.35;2.05;;;;;;;19.84;51.60;98035.76;2018530;87;21574;-63
2021/05/22 06:20:59;;;;;;;10.38;2.67;;;;;;;19.68;51.89;98033.11;2024440;87;21064;-64
2021/05/22 06:24:01;;;;;;;10.00;2.77;;;;;;;19.44;51.19;98038.83;2020757;88;21049;-63
2021/05/22 06:27:02;;;;;;;11.60;2.58;;;;;;;19.19;52.18;98045.52;2020653;88;21544;-65
2021/05/22 06:30:04;;;;;;;12.58;3.15;;;;;;;19.06;52.20;98046.50;2020784;88;21025;-64
2021/05/22 06:33:05;;;;;;;16.32;3.77;;;;;;;18.95;52.79;98046.36;2020602;88;21128;-69
2021/05/22 06:36:08;;;;;;;14.83;4.55;;;;;;;18.92;52.87;98048.50;2020768;88;21010;-64
2021/05/22 06:39:10;;;;;;;19.00;5.60;;;;;;;18.82;52.83;98061.43;2020542;88;21520;-63
2021/05/22 06:42:11;;;;;;;19.82;6.22;;;;;;;18.74;52.83;98069.89;2020619;88;21070;-65
2021/05/22 06:45:15;;;;;;;29.00;9.85;;;;;;;18.48;53.23;98065.53;2020793;88;21034;-64
2021/05/22 06:48:16;;;;;;;23.27;8.20;;;;;;;18.25;53.95;98076.73;2002470;88;21073;-64
2021/05/22 06:51:17;;;;;;;24.65;10.78;;;;;;;17.99;53.80;98081.61;2020829;88;21557;-63
2021/05/22 06:54:19;;;;;;;23.95;9.50;;;;;;;17.70;54.06;98084.59;2020854;88;20997;-65
2021/05/22 06:57:20;;;;;;;39.13;20.43;;;;;;;17.53;54.63;98090.76;2020903;88;21009;-63
2021/05/22 07:00:22;;;;;;;18.23;5.83;;;;;;;17.33;54.94;98104.23;2020843;87;21061;-67
2021/05/22 07:03:23;;;;;;;13.55;3.77;;;;;;;17.18;55.66;98105.25;2020834;88;21073;-67
2021/05/22 07:06:25;;;;;;;13.30;3.80;;;;;;;16.98;55.36;98108.56;2020737;88;21540;-71
2021/05/22 07:09:26;;;;;;;12.80;3.47;;;;;;;16.68;55.58;98109.26;2020839;88;21029;-65
2021/05/22 07:12:28;;;;;;;18.48;5.65;;;;;;;16.53;56.33;98102.30;2020580;88;21065;-65
2021/05/22 07:15:29;;;;;;;21.67;7.10;;;;;;;16.50;56.45;98075.31;2020841;88;21037;-69
2021/05/22 07:18:31;;;;;;;16.82;5.33;;;;;;;16.58;56.76;98045.78;2020751;88;21030;-69
2021/05/22 07:21:32;;;;;;;12.70;4.08;;;;;;;16.80;57.15;98046.31;2039654;87;21583;-71
2021/05/22 07:24:34;;;;;;;13.07;3.77;;;;;;;17.00;57.04;98072.17;2041751;87;21052;-66
2021/05/22 07:27:36;;;;;;;14.87;3.30;;;;;;;17.12;56.81;98080.70;2041850;87;21586;-63
2021/05/22 07:30:37;;;;;;;17.05;4.30;;;;;;;17.15;56.87;98083.05;2041528;87;21060;-64
2021/05/22 07:33:41;;;;;;;22.40;4.10;;;;;;;17.10;57.23;98089.31;2041891;87;21103;-64
2021/05/22 07:36:42;;;;;;;15.60;4.15;;;;;;;17.02;57.34;98095.86;2018492;87;21068;-63
2021/05/22 07:39:43;;;;;;;18.67;4.90;;;;;;;16.84;57.31;98091.38;2041886;87;21598;-63
2021/05/22 07:42:48;;;;;;;14.67;3.40;;;;;;;16.77;57.87;98098.25;2041942;87;21099;-67
2021/05/22 07:45:48;;;;;;;15.72;3.40;;;;;;;16.63;58.92;98101.73;2018430;87;21387;-64
2021/05/22 07:48:50;;;;;;;11.55;3.10;;;;;;;16.37;58.68;98096.34;2041760;87;21507;-65
2021/05/22 07:51:51;;;;;;;18.17;4.62;;;;;;;16.16;59.60;98107.20;2041731;87;21008;-64
2021/05/22 07:54:53;;;;;;;16.32;4.53;;;;;;;15.73;61.70;98119.98;2041741;87;21111;-64
2021/05/22 07:57:54;;;;;;;13.27;3.60;;;;;;;15.36;62.51;98125.21;2041865;87;21131;-64
2021/05/22 08:00:56;;;;;;;10.15;3.22;;;;;;;15.09;63.47;98115.36;2041956;87;21079;-63
2021/05/22 08:03:57;;;;;;;10.85;3.12;;;;;;;14.93;64.38;98123.34;2041707;87;21669;-63
2021/05/22 08:06:59;;;;;;;9.63;3.00;;;;;;;14.78;64.87;98123.39;2042144;87;21028;-63
2021/05/22 08:10:00;;;;;;;11.43;3.17;;;;;;;14.73;64.97;98107.48;2042043;87;21080;-64
2021/05/22 08:13:03;;;;;;;10.25;3.30;;;;;;;14.80;65.92;98106.45;2041901;87;21108;-63
2021/05/22 08:16:05;;;;;;;11.20;3.10;;;;;;;15.00;65.69;98096.73;2041676;87;21052;-63
2021/05/22 08:19:06;;;;;;;14.95;3.27;;;;;;;15.31;64.33;98086.48;2041965;86;21077;-63
2021/05/22 08:22:08;;;;;;;13.22;3.30;;;;;;;15.54;64.05;98090.48;2041730;87;21068;-64
2021/05/22 08:25:09;;;;;;;16.67;3.73;;;;;;;15.66;63.91;98085.84;2041913;87;21610;-63
2021/05/22 08:28:13;;;;;;;14.55;3.83;;;;;;;15.67;64.12;98087.49;2041904;87;21036;-64
2021/05/22 08:31:14;;;;;;;15.18;3.90;;;;;;;15.63;63.78;98081.32;2018595;87;21115;-68
2021/05/22 08:34:15;;;;;;;14.13;3.90;;;;;;;15.65;61.84;98071.45;2042033;87;21603;-64
2021/05/22 08:37:20;;;;;;;16.63;4.17;;;;;;;15.41;62.49;98074.93;2042096;87;21124;-64
2021/05/22 08:40:20;;;;;;;17.60;4.37;;;;;;;15.26;62.90;98085.59;2018467;87;21056;-64
2021/05/22 08:43:21;;;;;;;15.32;3.75;;;;;;;15.11;62.23;98086.49;2042260;87;21048;-63
2021/05/22 08:46:23;;;;;;;14.87;3.70;;;;;;;14.90;63.06;98091.94;2041998;87;21539;-64
2021/05/22 08:49:24;;;;;;;12.47;3.30;;;;;;;14.81;64.34;98106.81;2042025;87;21167;-63
2021/05/22 08:52:26;;;;;;;13.97;3.10;;;;;;;14.54;63.14;98121.95;2041960;87;21004;-63
2021/05/22 08:55:27;;;;;;;12.10;3.20;;;;;;;14.07;64.28;98116.40;2042001;87;21036;-63
2021/05/22 08:58:29;;;;;;;12.90;2.83;;;;;;;14.07;64.28;98116.40;2041992;87;21402;-64
2021/05/22 09:01:30;;;;;;;8.47;2.23;;;;;;;13.99;64.78;98114.41;2041830;87;21115;-63
2021/05/22 09:04:33;;;;;;;6.15;2.10;;;;;;;13.93;64.18;98108.36;2041626;87;21901;-63
2021/05/22 09:07:34;;;;;;;8.63;2.30;;;;;;;13.88;65.17;98114.49;2042004;87;21012;-64
2021/05/22 09:10:35;;;;;;;9.00;2.30;;;;;;;13.78;65.24;98121.06;2041958;87;21103;-63
2021/05/22 09:13:37;;;;;;;9.25;2.58;;;;;;;13.62;65.55;98128.95;2041856;87;21056;-64
2021/05/22 09:16:38;;;;;;;8.63;2.50;;;;;;;13.44;66.25;98134.45;2041883;87;21149;-64
2021/05/22 09:19:40;;;;;;;9.20;2.40;;;;;;;13.28;67.34;98123.02;2041845;87;21535;-64
2021/05/22 09:22:41;;;;;;;11.93;2.17;;;;;;;13.17;67.71;98137.05;2041969;87;21123;-63
2021/05/22 09:25:43;;;;;;;8.20;2.37;;;;;;;13.03;68.64;98136.04;2041870;87;21016;-62
2021/05/22 09:28:44;;;;;;;8.37;2.47;;;;;;;12.90;69.56;98141.47;2041848;87;21135;-63
2021/05/22 09:31:46;;;;;;;6.87;2.33;;;;;;;12.73;70.22;98134.94;2041810;87;21276;-64
2021/05/22 09:34:47;;;;;;;9.47;2.33;;;;;;;12.60;71.58;98135.12;2041846;87;21148;-63
2021/05/22 09:37:49;;;;;;;9.00;2.33;;;;;;;12.49;72.62;98126.76;2041953;87;21000;-63
2021/05/22 09:40:51;;;;;;;11.35;2.75;;;;;;;12.38;74.10;98128.91;2041710;87;21150;-66
2021/05/22 09:43:52;;;;;;;9.65;2.30;;;;;;;12.32;74.67;98124.64;2041918;87;21092;-62
2021/05/22 09:46:53;;;;;;;9.67;2.80;;;;;;;12.28;74.83;98124.89;2041829;87;21591;-63
2021/05/22 09:49:55;;;;;;;10.90;2.60;;;;;;;12.22;75.09;98133.23;2041713;87;21656;-62
2021/05/22 09:52:57;;;;;;;9.63;2.60;;;;;;;12.24;75.12;98127.86;2042084;87;21056;-64
2021/05/22 09:55:58;;;;;;;10.13;2.50;;;;;;;12.24;76.04;98123.91;2041854;87;21108;-65
2021/05/22 09:59:01;;;;;;;7.53;2.00;;;;;;;12.27;74.93;98117.13;2041733;87;21081;-63
2021/05/22 10:02:03;;;;;;;9.55;2.67;;;;;;;12.33;75.04;98115.31;2041778;87;21160;-63
2021/05/22 10:05:05;;;;;;;12.20;2.40;;;;;;;12.39;76.14;98119.25;2041832;87;21088;-63
2021/05/22 10:08:06;;;;;;;8.53;2.25;;;;;;;12.38;74.85;98121.52;2041958;87;21103;-68
2021/05/22 10:11:08;;;;;;;7.27;2.40;;;;;;;12.28;74.59;98116.14;2041968;87;21083;-66
2021/05/22 10:14:09;;;;;;;7.63;2.40;;;;;;;12.18;75.15;98120.47;2041924;87;21539;-68
2021/05/22 10:17:11;;;;;;;8.23;2.55;;;;;;;12.10;76.13;98119.77;2042198;87;21016;-65
2021/05/22 10:20:12;;;;;;;10.43;3.00;;;;;;;12.04;76.17;98119.77;2041980;87;21179;-66
2021/05/22 10:23:14;;;;;;;14.87;3.10;;;;;;;12.01;76.82;98120.01;2041956;87;21032;-69
2021/05/22 10:26:15;;;;;;;16.52;4.00;;;;;;;11.98;76.93;98120.71;2041922;87;21167;-68
2021/05/22 10:29:17;;;;;;;16.37;4.00;;;;;;;11.92;77.23;98125.94;2041911;87;21476;-68
2021/05/22 10:32:21;;;;;;;14.98;4.03;;;;;;;11.94;76.96;98128.84;2042009;87;21056;-65
2021/05/22 10:35:24;;;;;;;15.13;4.40;;;;;;;11.91;78.15;98134.30;2018591;87;21088;-66
2021/05/22 10:38:25;;;;;;;14.70;3.67;;;;;;;11.92;77.12;98141.24;2018439;87;21092;-64
2021/05/22 10:41:27;;;;;;;14.50;3.83;;;;;;;12.05;77.77;98141.62;2041919;87;21047;-63
2021/05/22 10:44:28;;;;;;;16.67;3.40;;;;;;;12.15;77.24;98143.05;2041891;87;21131;-64
2021/05/22 10:47:30;;;;;;;13.38;3.15;;;;;;;12.20;76.91;98150.94;2041906;87;21028;-65
2021/05/22 10:50:32;;;;;;;14.87;3.67;;;;;;;12.25;76.69;98150.57;2041898;87;21531;-63
2021/05/22 10:53:34;;;;;;;10.80;3.60;;;;;;;12.27;77.18;98158.70;2041896;87;21128;-63
2021/05/22 10:56:37;;;;;;;;;;;;;;;12.34;77.33;98159.52;2044112;87;21079;-62
2021/05/22 10:59:41;;;;;;;10.93;3.15;;;;;;;12.38;76.89;98164.41;2007235;89;20235;-64
2021/05/22 11:02:44;;;;;;;10.50;2.70;;;;;;;12.42;76.81;98173.74;2018506;87;21111;-65
2021/05/22 11:05:46;;;;;;;9.80;3.00;;;;;;;12.34;76.53;98183.20;2041479;87;21622;-63
2021/05/22 11:08:47;;;;;;;11.70;3.17;;;;;;;12.24;77.94;98190.50;2041813;87;21027;-64
2021/05/22 11:11:49;;;;;;;12.13;3.13;;;;;;;12.24;77.64;98183.07;2041863;87;21016;-63
2021/05/22 11:14:52;;;;;;;10.63;2.95;;;;;;;12.24;77.78;98185.24;2041902;87;21631;-63
2021/05/22 11:17:53;;;;;;;10.00;2.70;;;;;;;12.25;78.01;98192.64;2018409;87;21047;-66
2021/05/22 11:20:56;;;;;;;13.13;3.45;;;;;;;12.17;77.66;98193.70;2041822;87;21123;-66
2021/05/22 11:23:57;;;;;;;16.52;4.10;;;;;;;12.20;78.60;98192.18;2041877;87;21630;-63
2021/05/22 11:26:59;;;;;;;13.80;3.83;;;;;;;12.27;78.31;98191.58;2041740;87;21048;-64
2021/05/22 11:30:02;;;;;;;13.90;3.58;;;;;;;12.46;78.29;98188.33;2041769;87;21634;-64
2021/05/22 11:33:04;;;;;;;15.20;3.85;;;;;;;12.56;77.78;98186.30;2041639;87;21084;-65
2021/05/22 11:36:05;;;;;;;12.23;3.70;;;;;;;12.77;77.81;98187.67;2041752;87;21566;-65
2021/05/22 11:39:07;;;;;;;13.67;4.03;;;;;;;12.94;77.35;98177.97;2041897;87;21036;-63
2021/05/22 11:42:08;;;;;;;14.33;3.67;;;;;;;12.95;76.77;98183.56;2041907;87;21107;-64
2021/05/22 11:45:09;;;;;;;14.80;3.60;;;;;;;13.09;77.62;98186.41;2041925;87;21542;-64
2021/05/22 11:48:11;;;;;;;15.80;4.07;;;;;;;13.11;76.74;98182.33;2042053;87;21132;-63
2021/05/22 11:51:13;;;;;;;15.05;4.15;;;;;;;12.91;77.02;98183.45;2041931;87;21024;-66
2021/05/22 11:54:15;;;;;;;16.32;4.17;;;;;;;12.81;77.05;98178.58;2041948;87;21063;-65
2021/05/22 11:57:17;;;;;;;16.48;3.70;;;;;;;12.87;77.49;98174.63;2041695;87;21678;-63
2021/05/22 12:00:18;;;;;;;9.37;2.90;;;;;;;12.87;76.56;98177.25;2041959;87;21130;-65
2021/05/22 12:03:20;;;;;;;13.73;3.67;;;;;;;12.83;76.84;98180.14;2041984;87;21012;-64
2021/05/22 12:06:21;;;;;;;12.77;3.40;;;;;;;12.74;77.14;98173.00;2041919;87;20996;-64
2021/05/22 12:09:23;;;;;;;10.87;2.90;;;;;;;12.66;78.05;98179.34;2042026;87;21020;-63
2021/05/22 12:12:24;;;;;;;13.75;3.70;;;;;;;12.74;77.67;98177.41;2041771;87;21662;-64
2021/05/22 12:15:26;;;;;;;12.50;3.47;;;;;;;12.79;78.39;98172.13;2042042;87;21048;-64
2021/05/22 12:18:27;;;;;;;16.30;4.07;;;;;;;12.94;77.62;98171.84;2042010;87;21092;-63
2021/05/22 12:21:29;;;;;;;14.78;3.60;;;;;;;12.95;77.38;98174.35;2032413;87;21088;-63
2021/05/22 12:24:31;;;;;;;14.57;3.77;;;;;;;13.10;76.46;98176.70;2020984;88;21058;-63
2021/05/22 12:27:32;;;;;;;13.93;3.50;;;;;;;13.10;76.46;98176.70;2020914;88;21445;-63
2021/05/22 12:30:33;;;;;;;13.93;3.60;;;;;;;13.22;76.12;98173.06;2020845;88;21017;-64
2021/05/22 12:33:35;;;;;;;8.60;2.50;;;;;;;13.31;75.26;98173.61;2020996;88;21028;-63
2021/05/22 12:36:36;;;;;;;18.37;4.97;;;;;;;13.25;73.53;98171.98;2020875;88;21532;-65
2021/05/22 12:39:38;;;;;;;13.93;3.83;;;;;;;13.11;76.36;98167.84;2021136;88;21021;-63
2021/05/22 12:42:39;;;;;;;13.35;4.00;;;;;;;13.05;75.31;98173.13;2020945;88;21058;-63
2021/05/22 12:45:43;;;;;;;12.40;3.53;;;;;;;13.11;75.80;98176.56;2020865;88;21575;-63
2021/05/22 12:48:44;;;;;;;11.00;3.20;;;;;;;13.23;75.59;98173.89;2002496;88;21109;-65
2021/05/22 12:51:45;;;;;;;10.27;3.10;;;;;;;13.26;74.92;98158.69;2021057;88;21057;-63
2021/05/22 12:54:47;;;;;;;11.63;3.00;;;;;;;13.23;74.41;98160.27;2020891;88;21591;-63
2021/05/22 12:57:49;;;;;;;10.93;2.50;;;;;;;13.40;74.17;98157.56;2020822;88;21041;-63
2021/05/22 13:00:52;;;;;;;9.93;2.72;;;;;;;13.56;71.88;98153.65;2020816;88;21526;-64
2021/05/22 13:03:53;;;;;;;13.93;3.55;;;;;;;13.66;71.57;98136.09;2020714;88;21085;-64
2021/05/22 13:06:55;;;;;;;14.90;3.83;;;;;;;13.76;72.51;98134.34;2020852;88;21038;-64
2021/05/22 13:09:56;;;;;;;11.80;3.20;;;;;;;13.98;72.38;98136.48;2020964;88;21009;-65
2021/05/22 13:12:58;;;;;;;14.13;3.62;;;;;;;14.04;70.30;98141.22;2020725;88;21543;-64
2021/05/22 13:16:00;;;;;;;11.40;3.30;;;;;;;14.15;71.47;98124.45;2020868;88;20998;-64
2021/05/22 13:19:02;;;;;;;10.98;2.70;;;;;;;14.78;71.40;98112.84;2020728;88;21560;-64
2021/05/22 13:22:03;;;;;;;13.40;2.87;;;;;;;15.44;69.58;98109.46;2032143;87;21121;-64
2021/05/22 13:25:05;;;;;;;8.77;2.63;;;;;;;16.05;68.48;98115.31;2041875;87;21152;-64
2021/05/22 13:28:06;;;;;;;10.43;2.58;;;;;;;16.22;67.38;98115.00;2041745;87;21731;-63
2021/05/22 13:34:11;;;;;;;7.37;2.52;;;;;;;16.12;64.66;98115.08;2018370;87;21048;-64
2021/05/22 13:37:12;;;;;;;13.80;3.87;;;;;;;16.33;64.10;98106.05;2041852;87;21508;-64
2021/05/22 13:40:14;;;;;;;12.07;3.55;;;;;;;16.32;62.31;98117.61;2042080;87;21068;-64
2021/05/22 13:43:15;;;;;;;12.63;3.67;;;;;;;15.87;62.31;98108.63;2042058;87;21132;-63
2021/05/22 13:46:17;;;;;;;15.57;3.97;;;;;;;15.75;64.13;98113.23;2041955;87;21902;-65
2021/05/22 13:49:18;;;;;;;13.55;3.35;;;;;;;15.67;65.76;98114.42;2041872;87;21087;-63
2021/05/22 13:52:20;;;;;;;;;;;;;;;15.54;65.06;98123.52;2044008;87;21654;-64
2021/05/22 13:55:22;;;;;;;12.95;3.02;;;;;;;15.48;66.70;98126.70;2007271;89;20159;-63
2021/05/22 13:58:23;;;;;;;10.93;2.70;;;;;;;15.51;63.64;98128.23;2041718;87;21562;-64
2021/05/22 14:01:25;;;;;;;13.08;3.80;;;;;;;15.39;65.12;98118.31;2041815;87;21361;-64
2021/05/22 14:04:27;;;;;;;;;;;;;;;15.61;66.41;98110.55;2043979;87;21673;-65
2021/05/22 14:07:28;;;;;;;12.78;3.05;;;;;;;15.78;65.37;98099.72;2007369;89;20197;-64
2021/05/22 14:10:30;;;;;;;12.77;3.20;;;;;;;15.93;65.30;98108.88;2041821;87;21131;-64
2021/05/22 14:13:32;;;;;;;14.80;3.77;;;;;;;16.06;64.52;98111.20;2041812;87;21000;-64